Time;durP1;ratioP1;P1;durP2;ratioP2;P2;SDS_P1;SDS_P2;PMS_P1;PMS_P2;Temp;Humidity;BMP_temperature;BMP_pressure;BME280_temperature;BME280_humidity;BME280_pressure;Samples;Min_cycle;Max_cycle;Signal;HPM_P1;HPM_P2
2023/09/02 00:00:34;;;;;;;2.00;1.40;;;15.70;99.90;15.70;100654.00;;;;5022730;27;89704;-65
2023/09/02 00:03:00;;;;;;;3.97;1.40;;;15.70;99.90;15.70;100657.00;;;;5021570;27;89478;-64
2023/09/02 00:05:25;;;;;;;1.30;1.20;;;15.60;99.90;15.60;100661.00;;;;5022785;27;101276;-64
2023/09/02 00:07:51;;;;;;;1.25;1.15;;;15.60;99.90;15.60;100665.00;;;;5025383;27;108416;-64
2023/09/02 00:10:17;;;;;;;2.63;1.35;;;15.60;99.90;15.50;100667.00;;;;5021655;27;117723;-64
2023/09/02 00:12:42;;;;;;;2.63;1.48;;;15.50;99.90;15.50;100662.00;;;;5022068;27;110489;-67
2023/09/02 00:15:08;;;;;;;2.00;1.35;;;15.50;99.90;15.50;100666.00;;;;5023634;27;96681;-67
2023/09/02 00:17:35;;;;;;;2.20;1.58;;;15.50;99.90;15.40;100672.00;;;;5021607;27;86991;-65
2023/09/02 00:20:05;;;;;;;2.97;1.30;;;15.40;99.90;15.40;100668.00;;;;5024010;27;89155;-65
2023/09/02 00:22:32;;;;;;;1.25;1.15;;;15.30;99.90;15.30;100681.00;;;;5007138;27;89150;-65
2023/09/02 00:24:58;;;;;;;1.08;0.88;;;15.30;99.90;15.30;100680.00;;;;5025826;27;88772;-65
2023/09/02 00:27:24;;;;;;;3.13;1.25;;;15.20;99.90;15.20;100677.00;;;;5024248;27;97311;-65
2023/09/02 00:29:50;;;;;;;0.77;0.60;;;15.20;99.90;15.20;100679.00;;;;5026166;27;89116;-65
2023/09/02 00:32:15;;;;;;;2.47;1.40;;;15.20;99.90;15.10;100681.00;;;;5020467;27;98773;-65
2023/09/02 00:34:41;;;;;;;1.55;1.38;;;15.10;99.90;15.10;100683.00;;;;5026454;27;88931;-65
2023/09/02 00:37:07;;;;;;;1.67;1.58;;;15.10;99.90;15.10;100684.00;;;;5027485;27;87796;-65
2023/09/02 00:39:33;;;;;;;1.23;1.00;;;15.10;99.90;15.10;100684.00;;;;5023721;27;117110;-65
2023/09/02 00:42:00;;;;;;;1.17;1.08;;;15.10;99.90;15.00;100687.00;;;;5023242;27;87695;-65
2023/09/02 00:44:26;;;;;;;1.67;1.58;;;15.00;99.90;15.00;100693.00;;;;5008889;27;88061;-64
2023/09/02 00:46:52;;;;;;;1.35;1.15;;;15.00;99.90;15.00;100688.00;;;;5024786;27;97490;-65
2023/09/02 00:49:18;;;;;;;1.73;1.10;;;15.00;99.90;15.10;100693.00;;;;5000936;27;89869;-64
2023/09/02 00:51:43;;;;;;;1.85;1.25;;;15.00;99.90;15.10;100689.00;;;;5019178;27;88949;-66
2023/09/02 00:54:09;;;;;;;1.20;1.10;;;15.00;99.90;15.10;100690.00;;;;5023976;27;105307;-65
2023/09/02 00:56:37;;;;;;;1.92;1.42;;;15.10;99.90;15.20;100682.00;;;;5021779;27;87839;-65
2023/09/02 00:59:04;;;;;;;1.35;1.08;;;15.10;99.90;15.20;100682.00;;;;5004951;27;87837;-65
2023/09/02 01:01:33;;;;;;;2.15;1.35;;;15.20;99.90;15.30;100684.00;;;;5025609;27;88264;-65
2023/09/02 01:04:02;;;;;;;1.70;1.60;;;15.20;99.90;15.30;100676.00;;;;5004307;27;87721;-65
2023/09/02 01:06:28;;;;;;;3.50;1.40;;;15.20;99.90;15.40;100676.00;;;;5029486;27;87536;-65
2023/09/02 01:08:54;;;;;;;3.10;1.70;;;15.30;99.90;15.40;100678.00;;;;5022432;27;116884;-66
2023/09/02 01:11:19;;;;;;;1.70;1.38;;;15.40;99.90;15.50;100679.00;;;;5020890;27;116999;-66
2023/09/02 01:13:45;;;;;;;1.65;1.45;;;15.40;99.90;15.50;100672.00;;;;5021805;27;109394;-65
2023/09/02 01:16:11;;;;;;;1.50;1.35;;;15.40;99.90;15.50;100680.00;;;;5021424;27;109955;-65
2023/09/02 01:18:36;;;;;;;3.13;2.50;;;15.40;99.90;15.60;100677.00;;;;5004692;27;119749;-66
2023/09/02 01:21:46;;;;;;;3.65;1.80;;;15.50;99.90;15.60;100675.00;;;;5024715;27;89161;-65
2023/09/02 01:24:37;;;;;;;3.67;1.98;;;15.60;99.90;15.60;100687.00;;;;5005654;27;87766;-66
2023/09/02 01:27:15;;;;;;;2.22;1.83;;;15.60;99.90;15.70;100695.00;;;;5005582;27;88187;-66
2023/09/02 01:30:08;;;;;;;3.25;2.15;;;15.60;99.90;15.70;100695.00;;;;5024804;27;87841;-66
2023/09/02 01:32:42;;;;;;;1.85;1.73;;;15.60;99.90;15.80;100688.00;;;;5007367;27;88032;-65
2023/09/02 01:35:08;;;;;;;3.05;1.77;;;15.70;99.90;15.80;100695.00;;;;5025402;27;87977;-65
2023/09/02 01:37:43;;;;;;;2.15;1.95;;;15.70;99.90;15.90;100705.00;;;;5011563;27;109511;-65
2023/09/02 01:40:21;;;;;;;2.67;2.33;;;15.80;99.90;15.90;100691.00;;;;5020038;27;88864;-66
2023/09/02 01:42:50;;;;;;;4.15;2.75;;;15.80;99.90;15.90;100697.00;;;;5008613;27;88787;-65
2023/09/02 01:45:22;;;;;;;4.80;2.70;;;15.90;99.90;15.90;100694.00;;;;5021607;27;87910;-65
2023/09/02 01:47:48;;;;;;;6.53;3.42;;;15.90;99.90;16.00;100695.00;;;;5021160;27;88029;-65
2023/09/02 01:50:16;;;;;;;3.92;2.17;;;15.90;99.90;16.00;100691.00;;;;5021044;27;108268;-65
2023/09/02 01:52:43;;;;;;;4.07;2.78;;;15.90;99.90;16.00;100695.00;;;;5005537;27;88005;-66
2023/09/02 01:55:09;;;;;;;5.32;2.95;;;16.00;99.90;16.00;100705.00;;;;5021911;27;110552;-66
2023/09/02 01:57:36;;;;;;;3.13;2.78;;;16.00;99.90;16.10;100706.00;;;;5024118;27;107991;-66
2023/09/02 02:00:04;;;;;;;3.75;2.95;;;16.00;99.90;16.10;100706.00;;;;5009553;27;89363;-66
2023/09/02 02:02:30;;;;;;;5.07;3.28;;;16.00;99.90;16.10;100706.00;;;;5026092;27;87897;-66
2023/09/02 02:05:02;;;;;;;3.75;3.25;;;16.00;99.90;16.10;100700.00;;;;5020833;27;110315;-66
2023/09/02 02:07:36;;;;;;;6.00;3.72;;;16.00;99.90;16.10;100698.00;;;;5007180;27;87842;-65
2023/09/02 02:10:06;;;;;;;3.70;3.33;;;16.10;99.90;16.10;100712.00;;;;5005521;27;88457;-66
2023/09/02 02:12:32;;;;;;;5.32;3.83;;;16.10;99.90;16.20;100719.00;;;;5025474;27;101250;-66
2023/09/02 02:14:58;;;;;;;3.50;3.20;;;16.10;99.90;16.20;100713.00;;;;5026121;27;102368;-65
2023/09/02 02:17:25;;;;;;;5.78;3.50;;;16.10;99.90;16.20;100724.00;;;;5026541;27;87858;-66
2023/09/02 02:19:51;;;;;;;4.43;3.38;;;16.10;99.90;16.20;100725.00;;;;5022916;27;117863;-66
2023/09/02 02:22:17;;;;;;;4.97;3.40;;;16.20;99.90;16.20;100728.00;;;;5022465;27;117563;-65
2023/09/02 02:24:42;;;;;;;4.90;3.13;;;16.20;99.90;16.20;100727.00;;;;5026756;27;110552;-66
2023/09/02 02:27:09;;;;;;;3.08;2.55;;;16.20;99.90;16.20;100738.00;;;;5026237;27;109030;-67
2023/09/02 02:29:34;;;;;;;3.13;2.83;;;16.20;99.90;16.20;100733.00;;;;5021151;27;88685;-66
2023/09/02 02:32:00;;;;;;;2.97;2.45;;;16.10;99.90;16.20;100730.00;;;;5023002;27;117817;-65
2023/09/02 02:34:26;;;;;;;3.67;2.80;;;16.20;99.90;16.20;100728.00;;;;5025938;27;110739;-66
2023/09/02 02:36:51;;;;;;;3.08;2.25;;;16.20;99.90;16.20;100738.00;;;;5021293;27;108073;-65
2023/09/02 02:39:18;;;;;;;2.92;2.70;;;16.20;99.90;16.20;100732.00;;;;5018780;27;117444;-65
2023/09/02 02:41:43;;;;;;;3.50;3.20;;;16.10;99.90;16.20;100734.00;;;;5018726;27;88447;-65
2023/09/02 02:44:09;;;;;;;4.32;3.08;;;16.10;99.90;16.20;100739.00;;;;5020365;27;110604;-65
2023/09/02 02:46:35;;;;;;;3.42;2.65;;;16.10;99.90;16.20;100740.00;;;;5020732;27;108408;-65
2023/09/02 02:49:00;;;;;;;2.60;2.38;;;16.10;99.90;16.20;100739.00;;;;5023529;27;116234;-65
2023/09/02 02:51:26;;;;;;;4.50;4.10;;;16.10;99.90;16.20;100744.00;;;;5021332;27;109961;-64
2023/09/02 02:53:52;;;;;;;3.50;3.08;;;16.10;99.90;16.20;100748.00;;;;5019498;27;110890;-63
2023/09/02 02:56:17;;;;;;;4.28;2.70;;;16.10;99.90;16.20;100755.00;;;;5021735;27;87887;-65
2023/09/02 02:58:43;;;;;;;3.35;2.85;;;16.10;99.90;16.20;100749.00;;;;4999042;27;118232;-64
2023/09/02 03:01:11;;;;;;;3.75;2.42;;;16.10;99.90;16.20;100753.00;;;;5018233;27;104672;-64
2023/09/02 03:03:37;;;;;;;3.92;2.70;;;16.10;99.90;16.20;100753.00;;;;5019314;27;88576;-64
2023/09/02 03:06:05;;;;;;;14.27;2.45;;;16.10;99.90;16.20;100764.00;;;;5020843;27;103967;-64
2023/09/02 03:08:33;;;;;;;3.47;2.90;;;16.10;99.90;16.20;100757.00;;;;5022860;27;88095;-64
2023/09/02 03:11:01;;;;;;;3.65;3.15;;;16.10;99.90;16.20;100764.00;;;;5022889;27;87839;-64
2023/09/02 03:13:33;;;;;;;4.78;2.60;;;16.10;99.90;16.20;100764.00;;;;5023486;27;88040;-63
2023/09/02 03:16:00;;;;;;;4.25;2.35;;;16.10;99.90;16.20;100763.00;;;;5023069;27;88854;-64
2023/09/02 03:18:26;;;;;;;3.67;3.30;;;16.10;99.90;16.20;100760.00;;;;5019817;27;89189;-63
2023/09/02 03:20:51;;;;;;;3.38;2.95;;;16.10;99.90;16.10;100767.00;;;;5019985;27;117809;-63
2023/09/02 03:23:17;;;;;;;7.90;3.60;;;16.10;99.90;16.10;100760.00;;;;5021694;27;87836;-63
2023/09/02 03:25:42;;;;;;;3.80;3.33;;;16.10;99.90;16.10;100766.00;;;;5022637;27;109507;-63
2023/09/02 03:28:08;;;;;;;6.22;3.20;;;16.00;99.90;16.00;100760.00;;;;5020420;27;117082;-64
2023/09/02 03:30:34;;;;;;;3.28;2.97;;;16.00;99.90;16.00;100759.00;;;;5022180;27;117560;-63
2023/09/02 03:33:00;;;;;;;6.68;2.97;;;16.00;99.90;16.00;100766.00;;;;5017207;27;110369;-63
2023/09/02 03:35:26;;;;;;;5.95;3.60;;;15.90;99.90;16.00;100769.00;;;;5020885;27;108950;-63
2023/09/02 03:37:51;;;;;;;5.60;3.47;;;15.90;99.90;15.90;100764.00;;;;5021950;27;115527;-63
2023/09/02 03:40:18;;;;;;;3.95;3.03;;;15.90;99.90;15.90;100769.00;;;;5020408;27;116806;-64
2023/09/02 03:42:44;;;;;;;4.47;3.08;;;15.90;99.90;15.90;100774.00;;;;5022796;27;88739;-64
2023/09/02 03:45:10;;;;;;;4.10;3.60;;;15.90;99.90;15.90;100768.00;;;;5021397;27;87700;-64
2023/09/02 03:47:36;;;;;;;2.67;2.45;;;15.80;99.90;15.90;100776.00;;;;5019160;27;88055;-64
2023/09/02 03:50:06;;;;;;;3.72;2.97;;;15.80;99.90;15.80;100775.00;;;;5020179;27;88238;-64
2023/09/02 03:52:32;;;;;;;3.38;2.92;;;15.80;99.90;15.80;100783.00;;;;5021470;27;87924;-64
2023/09/02 03:54:58;;;;;;;3.63;2.85;;;15.80;99.90;15.80;100772.00;;;;5023432;27;109117;-63
2023/09/02 03:57:24;;;;;;;2.88;2.67;;;15.80;99.90;15.80;100770.00;;;;5024537;27;116078;-63
2023/09/02 03:59:53;;;;;;;4.70;2.55;;;15.80;99.90;15.80;100778.00;;;;5006718;27;88324;-63
2023/09/02 04:02:19;;;;;;;3.92;2.85;;;15.80;99.90;15.80;100781.00;;;;5032204;27;87953;-63
2023/09/02 04:04:45;;;;;;;5.47;3.08;;;15.80;99.90;15.90;100770.00;;;;5026459;27;109360;-63
2023/09/02 04:07:10;;;;;;;4.90;2.75;;;15.80;99.90;15.80;100769.00;;;;5025830;27;118710;-64
2023/09/02 04:09:36;;;;;;;3.00;2.58;;;15.80;99.90;15.80;100783.00;;;;5029223;27;119477;-64
2023/09/02 04:12:02;;;;;;;4.22;3.00;;;15.80;99.90;15.80;100782.00;;;;5024308;27;110214;-64
2023/09/02 04:14:28;;;;;;;4.75;3.60;;;15.80;99.90;15.80;100784.00;;;;5021813;27;98856;-64
2023/09/02 04:16:54;;;;;;;5.45;2.92;;;15.80;99.90;15.80;100796.00;;;;5026515;27;108204;-65
2023/09/02 04:19:19;;;;;;;5.78;3.17;;;15.70;99.90;15.80;100809.00;;;;5021878;27;108611;-65
2023/09/02 04:21:46;;;;;;;4.90;2.70;;;15.70;99.90;15.70;100814.00;;;;5027125;27;93583;-64
2023/09/02 04:24:12;;;;;;;4.75;3.47;;;15.70;99.90;15.70;100817.00;;;;5022701;27;108266;-64
2023/09/02 04:26:38;;;;;;;3.78;3.00;;;15.70;99.90;15.70;100821.00;;;;5022240;27;117130;-64
2023/09/02 04:29:03;;;;;;;4.25;2.75;;;15.70;99.90;15.70;100823.00;;;;5022196;27;117059;-65
2023/09/02 04:31:29;;;;;;;4.55;3.20;;;16.10;99.90;15.70;100826.00;;;;5022003;27;89604;-65
2023/09/02 04:33:56;;;;;;;3.47;3.17;;;15.70;99.90;15.70;100818.00;;;;5022243;27;95339;-65
2023/09/02 04:36:23;;;;;;;4.38;3.03;;;15.60;99.90;15.70;100818.00;;;;5024250;27;87864;-65
2023/09/02 04:38:51;;;;;;;3.83;2.88;;;15.70;99.90;15.80;100824.00;;;;5023103;27;87880;-65
2023/09/02 04:41:16;;;;;;;3.85;3.10;;;15.70;99.90;15.80;100821.00;;;;5034054;27;87839;-65
2023/09/02 04:43:42;;;;;;;5.55;3.40;;;15.70;99.90;15.80;100834.00;;;;5025444;27;88043;-66
2023/09/02 04:46:08;;;;;;;5.90;3.30;;;15.70;99.90;15.80;100826.00;;;;5008084;27;88625;-64
2023/09/02 04:48:34;;;;;;;6.13;4.43;;;15.70;99.90;15.80;100830.00;;;;5027265;27;87816;-65
2023/09/02 04:50:59;;;;;;;6.22;4.15;;;15.80;99.90;15.80;100834.00;;;;5026120;27;87831;-65
2023/09/02 04:53:25;;;;;;;4.45;3.08;;;15.80;99.90;15.80;100844.00;;;;5025912;27;87757;-65
2023/09/02 04:55:51;;;;;;;5.10;3.42;;;15.80;99.90;15.80;100845.00;;;;5025302;27;89558;-65
2023/09/02 04:58:20;;;;;;;4.15;3.65;;;15.70;99.90;15.90;100844.00;;;;5024211;27;92864;-65
2023/09/02 05:00:45;;;;;;;3.30;3.00;;;15.80;99.90;15.90;100837.00;;;;5024945;27;88272;-65
2023/09/02 05:03:17;;;;;;;5.90;4.25;;;15.80;99.90;15.90;100844.00;;;;5024261;27;108277;-66
2023/09/02 05:05:44;;;;;;;9.18;4.72;;;15.80;99.90;15.90;100847.00;;;;5019799;27;94034;-64
2023/09/02 05:08:09;;;;;;;4.40;3.67;;;15.80;99.90;16.00;100853.00;;;;5022264;27;117586;-65
2023/09/02 05:10:35;;;;;;;4.63;2.95;;;15.90;99.90;16.00;100849.00;;;;5026366;27;110454;-65
2023/09/02 05:13:01;;;;;;;4.03;3.60;;;15.90;99.90;16.10;100850.00;;;;5025881;27;108437;-65
2023/09/02 05:15:26;;;;;;;7.15;3.85;;;16.00;99.90;16.10;100848.00;;;;5022335;27;88032;-65
2023/09/02 05:17:52;;;;;;;6.20;3.67;;;16.00;99.90;16.10;100859.00;;;;5022236;27;117636;-65
2023/09/02 05:20:18;;;;;;;5.75;4.38;;;16.00;99.90;16.10;100845.00;;;;5021713;27;89758;-65
2023/09/02 05:22:44;;;;;;;5.38;3.63;;;16.00;99.90;16.10;100854.00;;;;5006106;27;87975;-65
2023/09/02 05:25:10;;;;;;;3.72;3.17;;;16.10;99.90;16.10;100849.00;;;;5004245;27;90224;-65
2023/09/02 05:27:38;;;;;;;6.25;4.03;;;16.10;99.90;16.20;100844.00;;;;5026040;27;87955;-65
2023/09/02 05:30:06;;;;;;;5.10;4.00;;;16.10;99.90;16.20;100855.00;;;;5022458;27;87621;-65
2023/09/02 05:32:31;;;;;;;11.65;6.68;;;16.10;99.90;16.20;100850.00;;;;5025189;27;88088;-66
2023/09/02 05:34:57;;;;;;;8.57;4.47;;;16.10;99.90;16.20;100848.00;;;;5022023;27;116421;-65
2023/09/02 05:37:23;;;;;;;6.93;4.18;;;16.10;99.90;16.30;100855.00;;;;5020320;27;118396;-65
2023/09/02 05:39:49;;;;;;;6.93;4.25;;;16.20;99.90;16.30;100857.00;;;;5021959;27;87663;-65
2023/09/02 05:42:14;;;;;;;5.40;3.45;;;16.20;99.90;16.30;100858.00;;;;5020489;27;108820;-65
2023/09/02 05:44:41;;;;;;;3.78;3.47;;;16.20;99.90;16.30;100861.00;;;;5024430;27;118858;-65
2023/09/02 05:47:07;;;;;;;4.43;3.70;;;16.30;99.90;16.40;100866.00;;;;5026449;27;89643;-64
2023/09/02 05:49:37;;;;;;;4.45;4.05;;;16.30;99.90;16.40;100872.00;;;;5021227;27;88457;-64
2023/09/02 05:52:06;;;;;;;6.55;5.10;;;16.30;99.90;16.40;100868.00;;;;5019496;27;88215;-65
2023/09/02 05:54:32;;;;;;;12.73;4.80;;;16.30;99.90;16.40;100876.00;;;;5022484;27;90053;-64
2023/09/02 05:56:58;;;;;;;7.07;5.40;;;16.30;99.90;16.50;100875.00;;;;5026073;27;87872;-64
2023/09/02 05:59:23;;;;;;;4.47;3.38;;;16.40;99.90;16.50;100877.00;;;;5023725;27;109348;-64
2023/09/02 06:01:50;;;;;;;5.80;4.60;;;16.40;99.90;16.50;100882.00;;;;5021046;27;109506;-64
2023/09/02 06:04:19;;;;;;;4.80;4.40;;;16.40;99.90;16.50;100896.00;;;;5022148;27;89524;-64
2023/09/02 06:06:45;;;;;;;4.72;4.22;;;16.50;99.90;16.60;100892.00;;;;5019389;27;118109;-64
2023/09/02 06:09:10;;;;;;;7.50;4.07;;;16.50;99.90;16.60;100897.00;;;;5017577;27;88754;-64
2023/09/02 06:11:36;;;;;;;7.70;5.40;;;16.50;99.90;16.70;100901.00;;;;5022203;27;109445;-64
2023/09/02 06:14:02;;;;;;;4.75;3.85;;;16.60;99.90;16.70;100903.00;;;;5017533;27;116402;-65
2023/09/02 06:16:28;;;;;;;8.02;5.50;;;16.70;99.90;16.80;100901.00;;;;5020465;27;92149;-65
2023/09/02 06:18:53;;;;;;;6.25;4.10;;;16.70;99.90;16.80;100900.00;;;;5021541;27;89720;-65
2023/09/02 06:21:19;;;;;;;8.30;5.15;;;16.70;99.90;16.90;100899.00;;;;5003572;27;108300;-65
2023/09/02 06:23:45;;;;;;;7.13;4.95;;;16.80;99.90;16.90;100909.00;;;;5017179;27;118220;-65
2023/09/02 06:26:12;;;;;;;8.07;5.40;;;16.80;99.90;17.00;100904.00;;;;5015769;27;100894;-65
2023/09/02 06:28:38;;;;;;;10.85;6.20;;;16.80;99.90;17.00;100908.00;;;;5015314;27;87981;-65
2023/09/02 06:31:16;;;;;;;8.60;6.00;;;16.90;99.90;17.10;100913.00;;;;5017559;27;88222;-66
2023/09/02 06:33:42;;;;;;;12.65;5.43;;;16.90;99.90;17.10;100918.00;;;;5014800;27;120270;-66
2023/09/02 06:36:12;;;;;;;11.85;6.88;;;17.00;99.90;17.20;100902.00;;;;5016627;27;116422;-66
2023/09/02 06:38:38;;;;;;;9.77;4.55;;;17.10;99.90;17.20;100905.00;;;;5018947;27;88356;-66
2023/09/02 06:41:30;;;;;;;6.90;4.97;;;17.10;99.90;17.20;100914.00;;;;5016857;27;107340;-65
2023/09/02 06:43:56;;;;;;;5.18;4.50;;;17.20;99.90;17.30;100906.00;;;;4992344;27;117266;-66
2023/09/02 06:46:22;;;;;;;9.77;5.18;;;17.20;99.90;17.30;100914.00;;;;5016999;27;88742;-66
2023/09/02 06:48:49;;;;;;;9.80;6.57;;;17.20;99.90;17.40;100920.00;;;;5018065;27;88197;-66
2023/09/02 06:51:15;;;;;;;10.63;5.82;;;17.30;99.90;17.40;100922.00;;;;5016414;27;87858;-67
2023/09/02 06:53:42;;;;;;;5.45;4.22;;;17.30;99.90;17.50;100929.00;;;;5009839;27;88679;-67
2023/09/02 06:56:09;;;;;;;8.95;5.40;;;17.40;99.90;17.50;100928.00;;;;5017115;27;88921;-67
2023/09/02 06:58:38;;;;;;;7.78;4.38;;;17.40;99.90;17.60;100924.00;;;;5014942;27;88850;-67
2023/09/02 07:01:04;;;;;;;8.27;5.10;;;17.50;99.90;17.60;100928.00;;;;5019615;27;99722;-68
2023/09/02 07:03:29;;;;;;;4.28;3.85;;;17.50;99.90;17.70;100932.00;;;;5009810;27;118097;-67
2023/09/02 07:06:06;;;;;;;4.70;3.85;;;17.60;99.90;17.80;100934.00;;;;5014849;27;116213;-69
2023/09/02 07:08:32;;;;;;;5.43;4.53;;;17.70;99.90;17.90;100939.00;;;;5001214;27;87944;-67
2023/09/02 07:10:58;;;;;;;8.23;4.90;;;17.80;99.90;18.10;100946.00;;;;5018768;27;87827;-68
2023/09/02 07:13:24;;;;;;;5.70;4.10;;;17.90;99.90;18.30;100944.00;;;;5002168;27;87870;-69
2023/09/02 07:16:01;;;;;;;7.82;4.93;;;18.10;99.90;18.50;100951.00;;;;5020424;27;115028;-68
2023/09/02 07:18:27;;;;;;;4.57;4.07;;;18.30;99.90;18.70;100959.00;;;;5016435;27;87930;-69
2023/09/02 07:20:59;;;;;;;4.85;3.63;;;18.50;99.90;18.90;100959.00;;;;5016374;27;88063;-68
2023/09/02 07:23:28;;;;;;;7.10;3.63;;;18.60;99.90;19.00;100962.00;;;;5016050;27;90808;-68
2023/09/02 07:25:57;;;;;;;4.60;3.40;;;18.90;99.90;19.00;100961.00;;;;5017046;27;89539;-67
2023/09/02 07:28:22;;;;;;;4.53;3.30;;;18.90;99.90;19.10;100971.00;;;;5016354;27;98019;-67
2023/09/02 07:30:48;;;;;;;5.53;3.95;;;19.00;99.90;19.20;100973.00;;;;5022019;27;100119;-66
2023/09/02 07:33:14;;;;;;;4.65;3.08;;;19.10;99.90;19.20;100971.00;;;;5015733;27;112900;-66
2023/09/02 07:35:39;;;;;;;5.50;3.33;;;19.10;99.90;19.30;100970.00;;;;5016889;27;117696;-66
2023/09/02 07:38:06;;;;;;;4.95;3.42;;;19.20;99.90;19.30;100974.00;;;;5019774;27;109602;-65
2023/09/02 07:40:32;;;;;;;6.70;3.40;;;19.20;99.90;19.30;100980.00;;;;5020087;27;86851;-65
2023/09/02 07:43:02;;;;;;;6.30;3.38;;;19.20;99.90;19.40;100978.00;;;;5025182;27;118326;-65
2023/09/02 07:45:29;;;;;;;9.20;4.03;;;19.30;99.90;19.40;100979.00;;;;5030755;27;99472;-64
2023/09/02 07:47:54;;;;;;;5.50;2.92;;;19.30;99.90;19.40;100988.00;;;;5027054;27;93367;-64
2023/09/02 07:50:20;;;;;;;5.45;3.85;;;19.30;99.90;19.40;100990.00;;;;5030757;27;107396;-64
2023/09/02 07:52:47;;;;;;;5.03;3.22;;;19.30;99.90;19.40;100985.00;;;;5027260;27;104870;-63
2023/09/02 07:55:13;;;;;;;6.00;3.70;;;19.30;99.90;19.40;100994.00;;;;5020050;27;88335;-63
2023/09/02 07:57:39;;;;;;;3.58;3.13;;;19.30;99.90;19.40;100984.00;;;;5023770;27;88081;-64
2023/09/02 08:00:07;;;;;;;7.25;3.35;;;19.30;99.90;19.50;100990.00;;;;5019730;27;109206;-63
2023/09/02 08:02:32;;;;;;;5.90;3.13;;;19.30;99.90;19.50;100985.00;;;;5002626;27;98859;-62
2023/09/02 08:04:58;;;;;;;5.53;3.33;;;19.40;99.90;19.60;100985.00;;;;5020036;27;116414;-64
2023/09/02 08:07:24;;;;;;;3.88;3.47;;;19.50;99.90;19.80;100988.00;;;;5010961;27;108871;-64
2023/09/02 08:09:50;;;;;;;4.50;3.75;;;19.60;99.90;19.90;100985.00;;;;5014849;27;108640;-64
2023/09/02 08:12:16;;;;;;;5.47;2.95;;;19.80;99.90;20.00;100995.00;;;;5021780;27;103600;-64
2023/09/02 08:14:41;;;;;;;4.68;3.25;;;19.90;99.90;20.10;100999.00;;;;5018980;27;89559;-64
2023/09/02 08:17:07;;;;;;;4.00;3.15;;;20.00;99.90;20.20;101007.00;;;;5017071;27;109633;-63
2023/09/02 08:19:33;;;;;;;4.55;3.10;;;20.00;99.90;20.30;101012.00;;;;5017928;27;108570;-63
2023/09/02 08:21:59;;;;;;;2.95;2.58;;;20.20;99.90;20.40;101008.00;;;;5018367;27;116156;-65
2023/09/02 08:24:24;;;;;;;3.80;3.00;;;20.30;99.90;20.50;101004.00;;;;5018271;27;117996;-63
2023/09/02 08:26:50;;;;;;;4.57;2.83;;;20.40;99.90;20.70;101012.00;;;;5018919;27;108511;-63
2023/09/02 08:29:16;;;;;;;3.90;2.78;;;20.50;99.90;20.90;101018.00;;;;5024314;27;108816;-66
2023/09/02 08:31:41;;;;;;;5.32;3.35;;;20.60;99.90;21.00;101021.00;;;;5024057;27;118589;-62
2023/09/02 08:34:07;;;;;;;4.95;3.33;;;20.80;99.90;21.00;101018.00;;;;5023472;27;88434;-63
2023/09/02 08:36:33;;;;;;;3.00;2.17;;;20.80;99.90;21.00;101016.00;;;;5016874;27;109803;-63
2023/09/02 08:38:58;;;;;;;4.22;2.38;;;20.90;99.90;21.10;101028.00;;;;5020307;27;109376;-63
2023/09/02 08:41:29;;;;;;;3.65;2.10;;;21.00;99.90;21.20;101034.00;;;;5022365;27;115788;-63
2023/09/02 08:43:58;;;;;;;4.50;2.58;;;21.10;99.90;21.20;101031.00;;;;5021019;27;89220;-65
2023/09/02 08:46:31;;;;;;;3.45;2.45;;;21.10;99.90;21.20;101024.00;;;;5011287;27;88130;-63
2023/09/02 08:48:58;;;;;;;2.78;2.03;;;21.10;99.90;21.20;101035.00;;;;5023181;27;87668;-63
2023/09/02 08:51:26;;;;;;;2.92;2.65;;;21.10;99.90;21.20;101030.00;;;;5024854;27;88989;-63
2023/09/02 08:53:55;;;;;;;4.07;2.10;;;21.10;99.90;21.20;101025.00;;;;5020833;27;87770;-63
2023/09/02 08:56:24;;;;;;;3.35;2.53;;;21.10;99.90;21.30;101040.00;;;;5019337;27;88036;-64
2023/09/02 08:58:52;;;;;;;3.15;2.33;;;21.10;99.90;21.40;101039.00;;;;5004065;27;87887;-64
2023/09/02 09:01:21;;;;;;;4.15;2.80;;;21.20;99.90;21.60;101051.00;;;;5015827;27;108297;-64
2023/09/02 09:03:54;;;;;;;3.75;2.42;;;21.30;99.90;21.70;101043.00;;;;5015023;27;89258;-65
2023/09/02 09:06:22;;;;;;;4.30;2.22;;;21.50;99.90;21.70;101052.00;;;;5018867;27;88009;-63
2023/09/02 09:08:51;;;;;;;3.25;2.45;;;21.60;99.90;21.80;101054.00;;;;5017947;27;88080;-64
2023/09/02 09:11:18;;;;;;;2.55;2.35;;;21.60;99.90;21.80;101061.00;;;;5018929;27;96804;-64
2023/09/02 09:13:46;;;;;;;2.60;2.40;;;21.70;99.90;21.90;101053.00;;;;5018775;27;88197;-64
2023/09/02 09:16:23;;;;;;;3.55;2.65;;;21.70;99.90;22.00;101060.00;;;;5020263;27;88021;-64
2023/09/02 09:18:50;;;;;;;2.53;2.05;;;21.80;99.90;22.10;101059.00;;;;5023571;27;87187;-64
2023/09/02 09:21:16;;;;;;;2.28;2.08;;;21.90;99.90;22.20;101056.00;;;;5017840;27;88695;-64
2023/09/02 09:23:42;;;;;;;1.95;1.75;;;22.00;99.90;22.20;101053.00;;;;5018375;27;106985;-65
2023/09/02 09:26:11;;;;;;;2.50;1.85;;;22.00;99.90;22.10;101061.00;;;;5025123;27;109261;-64
2023/09/02 09:28:56;;;;;;;2.17;1.58;;;22.00;99.90;22.10;101062.00;;;;5019483;27;88012;-64
2023/09/02 09:31:23;;;;;;;2.88;1.70;;;21.90;99.90;22.10;101060.00;;;;5017447;27;88585;-63
2023/09/02 09:33:54;;;;;;;1.33;1.23;;;21.90;99.90;22.10;101063.00;;;;5022517;27;100776;-62
2023/09/02 09:36:27;;;;;;;2.00;1.35;;;21.90;99.90;22.20;101067.00;;;;5025721;27;87895;-63
2023/09/02 09:39:05;;;;;;;2.67;1.70;;;22.00;99.90;22.30;101070.00;;;;5022329;27;88105;-62
2023/09/02 09:41:32;;;;;;;3.08;1.33;;;22.10;99.90;22.50;101080.00;;;;5022753;27;88987;-64
2023/09/02 09:44:10;;;;;;;3.13;1.35;;;22.20;99.90;22.50;101078.00;;;;5020478;27;87166;-63
2023/09/02 09:46:49;;;;;;;3.22;1.35;;;22.30;99.90;22.40;101078.00;;;;5016702;27;87798;-65
2023/09/02 09:49:25;;;;;;;1.20;1.10;;;22.20;99.90;22.30;101081.00;;;;5016904;27;87792;-64
2023/09/02 09:52:08;;;;;;;1.13;1.00;;;22.20;99.90;22.30;101079.00;;;;5018304;27;89467;-64
2023/09/02 09:54:48;;;;;;;1.52;1.42;;;22.10;99.90;22.40;101083.00;;;;5016812;27;89535;-64
2023/09/02 09:57:18;;;;;;;1.33;1.23;;;22.20;99.90;22.40;101077.00;;;;5017768;27;88013;-64
2023/09/02 09:59:51;;;;;;;1.00;0.93;;;22.20;99.90;22.60;101074.00;;;;5014531;27;91387;-64
2023/09/02 10:02:23;;;;;;;1.13;0.80;;;22.30;99.90;22.80;101081.00;;;;5012258;27;88282;-63
2023/09/02 10:04:52;;;;;;;1.20;0.70;;;22.50;99.90;23.00;101080.00;;;;5021461;27;89077;-63
2023/09/02 10:07:30;;;;;;;1.77;1.38;;;22.60;99.90;23.20;101085.00;;;;5018031;27;87906;-63
2023/09/02 10:10:00;;;;;;;0.63;0.63;;;22.90;99.90;23.40;101091.00;;;;5017936;27;87502;-63
2023/09/02 10:12:26;;;;;;;1.42;0.80;;;23.00;99.90;23.50;101094.00;;;;5018842;27;89022;-63
2023/09/02 10:14:51;;;;;;;2.20;1.20;;;23.20;99.90;23.30;101093.00;;;;5017605;27;88555;-64
2023/09/02 10:17:18;;;;;;;1.02;0.52;;;23.10;99.90;23.10;101106.00;;;;5014637;27;110479;-63
2023/09/02 10:19:45;;;;;;;1.98;1.38;;;23.00;99.90;22.90;101092.00;;;;5017126;27;87973;-64
2023/09/02 10:22:18;;;;;;;0.88;0.80;;;22.80;99.90;22.70;101100.00;;;;5016012;27;106340;-65
2023/09/02 10:24:59;;;;;;;0.85;0.85;;;22.60;99.90;22.60;101107.00;;;;5019217;27;88247;-64
2023/09/02 10:27:26;;;;;;;1.60;1.00;;;22.50;99.90;22.50;101101.00;;;;5006395;27;88057;-63
2023/09/02 10:29:58;;;;;;;0.50;0.50;;;22.30;99.90;22.70;101104.00;;;;5017863;27;87797;-64
2023/09/02 10:32:52;;;;;;;0.73;0.73;;;22.40;99.90;22.90;101101.00;;;;5016976;27;88672;-64
2023/09/02 10:35:21;;;;;;;0.88;0.88;;;22.60;99.90;23.20;101107.00;;;;5000593;27;87529;-64
2023/09/02 10:37:55;;;;;;;1.00;0.68;;;22.80;99.90;23.40;101107.00;;;;5018170;27;87857;-64
2023/09/02 10:40:24;;;;;;;0.88;0.68;;;23.00;99.90;23.50;101109.00;;;;5014336;27;87901;-63
2023/09/02 10:42:50;;;;;;;0.57;0.57;;;23.20;99.90;23.50;101112.00;;;;5001054;27;92228;-64
2023/09/02 10:45:19;;;;;;;0.68;0.50;;;23.30;99.90;23.60;101109.00;;;;5017661;27;88997;-63
2023/09/02 10:47:47;;;;;;;0.60;0.60;;;23.30;99.90;23.70;101123.00;;;;5015371;27;88890;-64